Franklin, NC

5:37 AM EDT on September 02, 2015 (GMT -0400)
Iotla Valley | | Change Station
CLOSE
Current Station
Personal Weather Station
Location: Franklin, NC
Elevation: 2200 ft
Nearby Weather Stations

Elev 2200 ft 35.20 °N, 83.42 °W | Updated 8 seconds ago

Clear
Clear
63.5 °F
Feels Like 63.5 °F
N
0.0
Wind Variable Wind from West
Gusts 0.0 mph

Today
High -- | Low -- °F
--% Chance of Precip.
Yesterday
High -- | Low -- °F
Precip. -- in
7:06 AM 7:59 PM
Waning Gibbous, 82% visible
Pressure 30.16 in
Visibility 2.0 miles
Clouds Clear
Dew Point 34 °F
Humidity 33%
Rainfall 0.00 in
Snow Depth Not available.
UV 0 out of 12
Pollen 9.00 out of 12
Air Quality Not available.
Flu Activity Not available.
METAR KRHP 020915Z AUTO 00000KT 2SM BR CLR 17/17 A3016 RMK AO2 T01720172
Pressure 30.16 in
Visibility 2.0 miles
Clouds Clear
Dew Point 34 °F
Humidity 33%
Rainfall 0.00 in
Snow Depth Not available.
UV 0 out of 12
Pollen 9.00 out of 12
Air Quality Not available.
Flu Activity Not available.
METAR KRHP 020915Z AUTO 00000KT 2SM BR CLR 17/17 A3016 RMK AO2 T01720172

10-Day Weather Forecast

×

Almanac

Astronomy

Sep. 02, 2015 Rise Set
Actual Time
Civil Twilight
Nautical Twilight
Astronomical Twilight
Moon
Length of Visible Light
Length of Day
Tomorrow will be .
, % of the Moon is Illuminated

Today's Extremes

State Highs State Lows

Community

WunderPhotos

Upload Photos

1,851,730 photos uploaded!

WunderBlogs® & News

Nearby

Air Quality

  Air Quality AQ Index Pollutant
Not available.

Snow Depth

Station Depth Elevation

Earthquake Activity

City Distance Mag. Time & Date
Minimum magnitude displayed is 2.5.

Coastal Water Temperatures

Place Temperature

Stations

Nearby Weather Stations

Station Location Temp. Windchill Dew Point Humidity Wind Precip. Elev Updated Type